createdAt,value
2022-09-28T00:00:47.840Z,18.21
2022-09-28T00:03:14.772Z,18.20
2022-09-28T00:05:41.788Z,18.19
2022-09-28T00:08:08.789Z,18.19
2022-09-28T00:10:35.724Z,18.18
2022-09-28T00:13:03.041Z,18.18
2022-09-28T00:15:29.998Z,18.19
2022-09-28T00:17:56.939Z,18.18
2022-09-28T00:20:23.868Z,18.17
2022-09-28T00:22:50.819Z,18.17
2022-09-28T00:25:17.850Z,18.17
2022-09-28T00:27:50.288Z,18.16
2022-09-28T00:30:17.309Z,18.16
2022-09-28T00:32:44.272Z,18.15
2022-09-28T00:35:11.366Z,18.12
2022-09-28T00:37:38.409Z,18.12
2022-09-28T00:40:05.896Z,18.10
2022-09-28T00:42:32.841Z,18.11
2022-09-28T00:44:59.882Z,18.11
2022-09-28T00:47:47.342Z,18.10
2022-09-28T00:50:31.379Z,18.09
2022-09-28T00:53:09.761Z,18.10
2022-09-28T00:55:58.432Z,18.09
2022-09-28T00:58:27.855Z,18.10
2022-09-28T01:00:58.424Z,18.10
2022-09-28T01:03:26.214Z,18.08
2022-09-28T01:05:53.453Z,18.07
2022-09-28T01:08:42.974Z,18.07
2022-09-28T01:11:28.875Z,18.07
2022-09-28T01:14:14.876Z,18.06
2022-09-28T01:17:18.627Z,18.05
2022-09-28T01:20:25.718Z,18.03
2022-09-28T01:23:42.182Z,18.01
2022-09-28T01:26:21.998Z,18.00
2022-09-28T01:28:49.426Z,18.00
2022-09-28T01:31:16.673Z,17.98
2022-09-28T01:33:46.680Z,17.99
2022-09-28T01:36:19.988Z,18.00
2022-09-28T01:38:48.889Z,17.98
2022-09-28T01:41:18.036Z,17.98
2022-09-28T01:43:50.811Z,17.98
2022-09-28T01:46:20.599Z,17.98
2022-09-28T01:48:56.523Z,17.98
2022-09-28T01:51:32.870Z,17.98
2022-09-28T01:54:02.075Z,17.98
2022-09-28T01:56:40.618Z,17.97
2022-09-28T01:59:11.135Z,17.97
2022-09-28T02:01:40.903Z,17.96
2022-09-28T02:04:29.401Z,17.96
2022-09-28T02:07:15.428Z,17.96
2022-09-28T02:10:10.175Z,17.93
2022-09-28T02:12:53.028Z,17.92
2022-09-28T02:15:51.906Z,17.91
2022-09-28T02:18:18.850Z,17.90
2022-09-28T02:20:53.716Z,17.90
2022-09-28T02:23:21.513Z,17.90
2022-09-28T02:25:51.993Z,17.89
2022-09-28T02:28:19.173Z,17.89
2022-09-28T02:30:46.100Z,17.89
2022-09-28T02:33:16.618Z,17.90
2022-09-28T02:35:43.599Z,17.90
2022-09-28T02:38:11.506Z,17.90
2022-09-28T02:40:38.624Z,17.90
2022-09-28T02:43:25.153Z,17.88
2022-09-28T02:46:08.708Z,17.88
2022-09-28T02:48:43.868Z,17.87
2022-09-28T02:51:41.171Z,17.86
2022-09-28T02:54:12.645Z,17.85
2022-09-28T02:56:55.630Z,17.83
2022-09-28T02:59:57.358Z,17.82
2022-09-28T03:02:32.778Z,17.80
2022-09-28T03:05:21.118Z,17.79
2022-09-28T03:08:00.693Z,17.79
2022-09-28T03:10:33.271Z,17.77
2022-09-28T03:13:00.250Z,17.79
2022-09-28T03:15:29.410Z,17.79
2022-09-28T03:17:57.465Z,17.79
2022-09-28T03:20:24.999Z,17.78
2022-09-28T03:23:12.395Z,17.80
2022-09-28T03:25:38.958Z,17.79
2022-09-28T03:28:05.945Z,17.77
2022-09-28T03:30:32.858Z,17.77
2022-09-28T03:33:00.626Z,17.77
2022-09-28T03:35:27.560Z,17.76
2022-09-28T03:37:56.189Z,17.77
2022-09-28T03:40:23.242Z,17.75
2022-09-28T03:42:50.239Z,17.75
2022-09-28T03:45:17.135Z,17.73
2022-09-28T03:47:47.258Z,17.72
2022-09-28T03:50:14.500Z,17.71
2022-09-28T03:52:41.538Z,17.71
2022-09-28T03:55:08.898Z,17.70
2022-09-28T03:57:35.867Z,17.69
2022-09-28T04:00:04.592Z,17.70
2022-09-28T04:02:31.599Z,17.69
2022-09-28T04:04:58.582Z,17.68
2022-09-28T04:07:30.233Z,17.68
2022-09-28T04:09:57.923Z,17.69
2022-09-28T04:12:24.955Z,17.70
2022-09-28T04:14:51.905Z,17.70
2022-09-28T04:17:18.905Z,17.69
2022-09-28T04:19:45.947Z,17.68
2022-09-28T04:22:12.857Z,17.67
2022-09-28T04:24:39.987Z,17.65
2022-09-28T04:27:25.624Z,17.64
2022-09-28T04:29:52.562Z,17.62
2022-09-28T04:32:19.481Z,17.61
2022-09-28T04:34:46.442Z,17.61
2022-09-28T04:37:13.355Z,17.60
2022-09-28T04:39:44.969Z,17.59
2022-09-28T04:42:14.482Z,17.59
2022-09-28T04:44:41.410Z,17.58
2022-09-28T04:47:08.404Z,17.58
2022-09-28T04:49:38.604Z,17.58
2022-09-28T04:52:06.011Z,17.58
2022-09-28T04:54:32.963Z,17.60
2022-09-28T04:56:59.971Z,17.60
2022-09-28T04:59:26.946Z,17.61
2022-09-28T05:01:54.392Z,17.61
2022-09-28T05:04:25.823Z,17.61
2022-09-28T05:06:53.196Z,17.61
2022-09-28T05:09:20.162Z,17.60
2022-09-28T05:11:49.182Z,17.60
2022-09-28T05:14:16.683Z,17.58
2022-09-28T05:16:43.671Z,17.56
2022-09-28T05:19:10.928Z,17.55
2022-09-28T05:21:37.943Z,17.54
2022-09-28T05:24:07.832Z,17.54
2022-09-28T05:26:35.076Z,17.52
2022-09-28T05:29:02.068Z,17.51
2022-09-28T05:31:29.258Z,17.50
2022-09-28T05:33:56.259Z,17.49
2022-09-28T05:36:24.160Z,17.48
2022-09-28T05:38:51.325Z,17.49
2022-09-28T05:41:18.301Z,17.48
2022-09-28T05:43:45.932Z,17.51
2022-09-28T05:46:13.036Z,17.52
2022-09-28T05:48:39.981Z,17.52
2022-09-28T05:51:06.948Z,17.54
2022-09-28T05:53:36.885Z,17.55
2022-09-28T05:56:03.891Z,17.54
2022-09-28T05:58:30.882Z,17.53
2022-09-28T06:00:58.122Z,17.53
2022-09-28T06:03:25.215Z,17.53
2022-09-28T06:05:52.250Z,17.50
2022-09-28T06:08:19.489Z,17.50
2022-09-28T06:10:46.468Z,17.47
2022-09-28T06:13:13.528Z,17.47
2022-09-28T06:15:42.092Z,17.46
2022-09-28T06:18:16.128Z,17.45
2022-09-28T06:20:43.119Z,17.44
2022-09-28T06:23:10.612Z,17.43
2022-09-28T06:25:37.860Z,17.43
2022-09-28T06:28:06.616Z,17.44
2022-09-28T06:30:34.801Z,17.44
2022-09-28T06:33:02.213Z,17.44
2022-09-28T06:35:30.703Z,17.47
2022-09-28T06:37:58.467Z,17.47
2022-09-28T06:40:25.571Z,17.50
2022-09-28T06:43:02.885Z,17.50
2022-09-28T06:45:30.437Z,17.51
2022-09-28T06:47:58.714Z,17.51
2022-09-28T06:50:26.914Z,17.50
2022-09-28T06:52:54.563Z,17.50
2022-09-28T06:55:22.009Z,17.50
2022-09-28T06:57:57.278Z,17.48
2022-09-28T07:00:24.223Z,17.48
2022-09-28T07:02:51.154Z,17.46
2022-09-28T07:05:19.476Z,17.44
2022-09-28T07:07:46.468Z,17.42
2022-09-28T07:10:13.574Z,17.40
2022-09-28T07:12:40.859Z,17.42
2022-09-28T07:15:09.291Z,17.40
2022-09-28T07:17:50.077Z,17.42
2022-09-28T07:20:21.681Z,17.42
2022-09-28T07:22:53.702Z,17.44
2022-09-28T07:25:21.149Z,17.46
2022-09-28T07:27:48.082Z,17.46
2022-09-28T07:30:15.207Z,17.47
2022-09-28T07:32:42.610Z,17.49
2022-09-28T07:35:10.299Z,17.50
2022-09-28T07:37:37.290Z,17.51
2022-09-28T07:40:23.617Z,17.50
2022-09-28T07:42:50.924Z,17.51
2022-09-28T07:45:18.140Z,17.50
2022-09-28T07:47:46.110Z,17.49
2022-09-28T07:50:13.548Z,17.48
2022-09-28T07:52:40.485Z,17.47
2022-09-28T07:55:08.054Z,17.47
2022-09-28T07:57:35.639Z,17.45
2022-09-28T08:00:04.804Z,17.46
2022-09-28T08:02:32.622Z,17.45
2022-09-28T08:05:00.042Z,17.46
2022-09-28T08:07:27.002Z,17.49
2022-09-28T08:09:54.009Z,17.51
2022-09-28T08:12:21.365Z,17.52
2022-09-28T08:14:48.596Z,17.54
2022-09-28T08:17:15.979Z,17.54
2022-09-28T08:20:01.529Z,17.56
2022-09-28T08:22:32.404Z,17.57
2022-09-28T08:24:59.342Z,17.58
2022-09-28T08:27:26.327Z,17.58
2022-09-28T08:29:53.227Z,17.58
2022-09-28T08:32:20.408Z,17.58
2022-09-28T08:34:47.401Z,17.59
2022-09-28T08:37:14.395Z,17.59
2022-09-28T08:39:41.350Z,17.59
2022-09-28T08:42:13.951Z,17.59
2022-09-28T08:44:48.422Z,17.59
2022-09-28T08:47:40.597Z,17.60
2022-09-28T08:50:08.117Z,17.60
2022-09-28T08:52:38.416Z,17.60
2022-09-28T08:55:16.500Z,17.60
2022-09-28T08:58:13.882Z,17.59
2022-09-28T09:00:47.949Z,17.60
2022-09-28T09:03:16.868Z,17.59
2022-09-28T09:06:01.640Z,17.60
2022-09-28T09:08:43.434Z,17.59
2022-09-28T09:11:18.147Z,17.61
2022-09-28T09:13:50.671Z,17.61
2022-09-28T09:16:59.999Z,17.60
2022-09-28T09:20:09.153Z,17.61
2022-09-28T09:22:40.911Z,17.60
2022-09-28T09:25:28.554Z,17.60
2022-09-28T09:28:04.021Z,17.60
2022-09-28T09:30:35.753Z,17.60
2022-09-28T09:33:24.942Z,17.60
2022-09-28T09:36:07.137Z,17.59
2022-09-28T09:38:41.573Z,17.60
2022-09-28T09:41:41.843Z,17.60
2022-09-28T09:44:14.512Z,17.60
2022-09-28T09:46:54.201Z,17.60
2022-09-28T09:49:34.529Z,17.61
2022-09-28T09:52:15.308Z,17.62
2022-09-28T09:54:48.248Z,17.61
2022-09-28T09:57:42.711Z,17.61
2022-09-28T10:00:13.396Z,17.62
2022-09-28T10:02:40.533Z,17.62
2022-09-28T10:05:28.058Z,17.63
2022-09-28T10:08:20.976Z,17.63
2022-09-28T10:11:08.730Z,17.63
2022-09-28T10:13:35.689Z,17.65
2022-09-28T10:16:02.774Z,17.64
2022-09-28T10:18:30.021Z,17.64
2022-09-28T10:20:57.014Z,17.65
2022-09-28T10:23:31.844Z,17.65
2022-09-28T10:26:02.598Z,17.64
2022-09-28T10:29:01.979Z,17.66
2022-09-28T10:31:45.581Z,17.66
2022-09-28T10:34:17.313Z,17.66
2022-09-28T10:36:51.853Z,17.67
2022-09-28T10:39:54.237Z,17.68
2022-09-28T10:42:23.285Z,17.68
2022-09-28T10:44:52.986Z,17.70
2022-09-28T10:47:20.637Z,17.69
2022-09-28T10:49:49.276Z,17.70
2022-09-28T10:52:38.076Z,17.70
2022-09-28T10:55:32.470Z,17.72
2022-09-28T10:58:00.089Z,17.72
2022-09-28T11:00:30.771Z,17.73
2022-09-28T11:02:57.814Z,17.73
2022-09-28T11:05:28.020Z,17.73
2022-09-28T11:07:56.146Z,17.75
2022-09-28T11:10:26.557Z,17.74
2022-09-28T11:12:53.733Z,17.74
2022-09-28T11:15:31.224Z,17.75
2022-09-28T11:18:24.309Z,17.76
2022-09-28T11:20:51.243Z,17.78
2022-09-28T11:23:24.524Z,17.77
2022-09-28T11:25:59.473Z,17.81
2022-09-28T11:28:31.664Z,17.81
2022-09-28T11:30:59.434Z,17.80
2022-09-28T11:33:30.206Z,17.82
2022-09-28T11:36:01.892Z,17.82
2022-09-28T11:38:54.787Z,17.83
2022-09-28T11:41:43.174Z,17.84
2022-09-28T11:44:21.905Z,17.84
2022-09-28T11:47:04.073Z,17.84
2022-09-28T11:49:35.465Z,17.84
2022-09-28T11:52:06.343Z,17.84
2022-09-28T11:54:40.722Z,17.84
2022-09-28T11:57:12.786Z,17.86
2022-09-28T11:59:45.074Z,17.86
2022-09-28T12:02:22.621Z,17.86
2022-09-28T12:05:09.944Z,17.87
2022-09-28T12:08:08.068Z,17.86
2022-09-28T12:10:49.730Z,17.86
2022-09-28T12:13:22.946Z,17.87
2022-09-28T12:16:38.471Z,17.88
2022-09-28T12:18:57.653Z,17.88
2022-09-28T12:21:30.717Z,17.88
2022-09-28T12:24:05.273Z,17.89
2022-09-28T12:26:52.457Z,17.88
2022-09-28T12:29:23.412Z,17.88
2022-09-28T12:32:21.465Z,17.89
2022-09-28T12:34:48.353Z,17.89
2022-09-28T12:37:43.860Z,17.89
2022-09-28T12:40:35.217Z,17.90
2022-09-28T12:43:19.508Z,17.90
2022-09-28T12:46:13.768Z,17.91
2022-09-28T12:51:54.906Z,17.95
2022-09-28T12:54:42.832Z,17.94
2022-09-28T12:57:35.513Z,17.95
2022-09-28T13:00:24.779Z,17.97
2022-09-28T13:03:33.332Z,17.98
2022-09-28T13:06:06.324Z,17.98
2022-09-28T13:08:36.154Z,17.98
2022-09-28T13:11:07.026Z,17.99
2022-09-28T13:13:56.498Z,17.98
2022-09-28T13:16:42.203Z,17.98
2022-09-28T13:19:17.115Z,17.98
2022-09-28T13:21:49.163Z,17.97
2022-09-28T13:24:32.791Z,17.96
2022-09-28T13:27:06.929Z,17.96
2022-09-28T13:29:35.228Z,17.96
2022-09-28T13:32:02.546Z,17.95
2022-09-28T13:34:32.485Z,17.94
2022-09-28T13:37:17.589Z,17.94
2022-09-28T13:39:44.456Z,17.93
2022-09-28T13:42:13.262Z,17.93
2022-09-28T13:44:52.446Z,17.93
2022-09-28T13:47:47.310Z,17.93
2022-09-28T13:50:33.479Z,17.92
2022-09-28T13:53:06.393Z,17.92
2022-09-28T13:55:54.247Z,17.92
2022-09-28T13:58:28.629Z,17.91
2022-09-28T14:01:08.478Z,17.90
2022-09-28T14:03:57.532Z,17.90
2022-09-28T14:06:32.178Z,17.89
2022-09-28T14:08:59.175Z,17.89
2022-09-28T14:11:35.162Z,17.89
2022-09-28T14:14:08.811Z,17.89
2022-09-28T14:16:36.450Z,17.88
2022-09-28T14:19:19.375Z,17.88
2022-09-28T14:22:28.274Z,17.88
2022-09-28T14:25:17.688Z,17.87
2022-09-28T14:27:58.284Z,17.87
2022-09-28T14:30:46.915Z,17.86
2022-09-28T14:33:22.590Z,17.85
2022-09-28T14:35:58.958Z,17.86
2022-09-28T14:38:47.854Z,17.86
2022-09-28T14:41:19.831Z,17.86
2022-09-28T14:43:46.700Z,17.84
2022-09-28T14:46:19.444Z,17.84
2022-09-28T14:49:04.008Z,17.83
2022-09-28T14:51:30.858Z,17.84
2022-09-28T14:54:12.901Z,17.84
2022-09-28T14:56:58.267Z,17.83
2022-09-28T14:59:34.414Z,17.82
2022-09-28T15:02:10.762Z,17.83
2022-09-28T15:04:40.905Z,17.83
2022-09-28T15:07:21.576Z,17.83
2022-09-28T15:09:50.632Z,17.82
2022-09-28T15:12:19.152Z,17.82
2022-09-28T15:14:49.706Z,17.81
2022-09-28T15:17:17.926Z,17.82
2022-09-28T15:19:50.362Z,17.82
2022-09-28T15:22:17.841Z,17.82
2022-09-28T15:25:01.399Z,17.82
2022-09-28T15:27:36.755Z,17.82
2022-09-28T15:30:25.653Z,17.82
2022-09-28T15:32:56.847Z,17.81
2022-09-28T15:35:26.499Z,17.82
2022-09-28T15:37:55.190Z,17.81
2022-09-28T15:40:32.246Z,17.81
2022-09-28T15:42:59.660Z,17.81
2022-09-28T15:45:37.356Z,17.80
2022-09-28T15:48:22.680Z,17.80
2022-09-28T15:51:00.425Z,17.80
2022-09-28T15:53:27.393Z,17.83
2022-09-28T15:55:55.937Z,17.87
2022-09-28T15:58:23.080Z,17.94
2022-09-28T16:00:51.918Z,18.02
2022-09-28T16:03:39.025Z,18.09
2022-09-28T16:06:08.110Z,18.17
2022-09-28T16:08:43.091Z,18.23
2022-09-28T16:11:32.079Z,18.30
2022-09-28T16:14:06.594Z,18.35
2022-09-28T16:16:42.213Z,18.42
2022-09-28T16:19:26.235Z,18.48
2022-09-28T16:21:53.830Z,18.53
2022-09-28T16:24:32.059Z,18.56
2022-09-28T16:27:05.633Z,18.62
2022-09-28T16:29:40.467Z,18.64
2022-09-28T16:32:25.847Z,18.66
2022-09-28T16:35:16.728Z,18.68
2022-09-28T16:37:43.729Z,18.70
2022-09-28T16:40:11.344Z,18.68
2022-09-28T16:42:45.526Z,18.69
2022-09-28T16:45:23.565Z,18.69
2022-09-28T16:47:53.767Z,18.71
2022-09-28T16:50:21.448Z,18.73
2022-09-28T16:53:09.435Z,18.76
2022-09-28T16:55:41.322Z,18.77
2022-09-28T16:58:08.469Z,18.78
2022-09-28T17:00:35.675Z,18.80
2022-09-28T17:03:04.371Z,18.81
2022-09-28T17:05:31.358Z,18.84
2022-09-28T17:08:02.135Z,18.87
2022-09-28T17:11:02.188Z,18.89
2022-09-28T17:13:31.655Z,18.91
2022-09-28T17:15:58.912Z,18.91
2022-09-28T17:18:26.214Z,18.93
2022-09-28T17:20:55.507Z,18.93
2022-09-28T17:23:22.508Z,18.95
2022-09-28T17:25:49.422Z,18.96
2022-09-28T17:28:27.575Z,18.97
2022-09-28T17:30:54.715Z,18.98
2022-09-28T17:33:21.746Z,18.98
2022-09-28T17:35:49.002Z,19.01
2022-09-28T17:38:16.196Z,19.02
2022-09-28T17:40:44.042Z,19.02
2022-09-28T17:43:11.138Z,19.05
2022-09-28T17:45:41.220Z,19.07
2022-09-28T17:48:15.956Z,19.13
2022-09-28T17:50:46.405Z,19.18
2022-09-28T17:53:13.956Z,19.20
2022-09-28T17:55:41.225Z,19.21
2022-09-28T17:58:18.708Z,19.21
2022-09-28T18:00:46.636Z,19.22
2022-09-28T18:03:15.658Z,19.22
2022-09-28T18:05:43.906Z,19.23
2022-09-28T18:08:14.469Z,19.21
2022-09-28T18:10:41.428Z,19.21
2022-09-28T18:13:08.505Z,19.23
2022-09-28T18:15:35.532Z,19.25
2022-09-28T18:18:02.517Z,19.27
2022-09-28T18:20:29.952Z,19.28
2022-09-28T18:22:57.559Z,19.35
2022-09-28T18:25:24.483Z,19.42
2022-09-28T18:27:53.317Z,19.48
2022-09-28T18:30:20.316Z,19.53
2022-09-28T18:32:47.278Z,19.56
2022-09-28T18:35:14.240Z,19.59
2022-09-28T18:37:41.180Z,19.60
2022-09-28T18:40:09.324Z,19.64
2022-09-28T18:42:36.489Z,19.68
2022-09-28T18:45:08.211Z,19.73
2022-09-28T18:47:35.143Z,19.75
2022-09-28T18:50:02.082Z,19.78
2022-09-28T18:52:29.003Z,19.82
2022-09-28T18:54:55.900Z,19.80
2022-09-28T18:57:23.195Z,19.76
2022-09-28T18:59:50.123Z,19.71
2022-09-28T19:02:17.177Z,19.66
2022-09-28T19:04:44.394Z,19.60
2022-09-28T19:07:11.422Z,19.57
2022-09-28T19:09:40.781Z,19.53
2022-09-28T19:12:07.748Z,19.51
2022-09-28T19:14:34.775Z,19.46
2022-09-28T19:17:01.721Z,19.45
2022-09-28T19:19:29.861Z,19.43
2022-09-28T19:21:56.864Z,19.42
2022-09-28T19:24:23.954Z,19.38
2022-09-28T19:26:53.623Z,19.36
2022-09-28T19:29:20.740Z,19.37
2022-09-28T19:31:47.656Z,19.36
2022-09-28T19:34:15.265Z,19.33
2022-09-28T19:36:42.740Z,19.32
2022-09-28T19:39:12.914Z,19.29
2022-09-28T19:41:52.695Z,19.27
2022-09-28T19:44:30.449Z,19.27
2022-09-28T19:46:58.943Z,19.23
2022-09-28T19:49:27.250Z,19.23
2022-09-28T19:52:15.084Z,19.20
2022-09-28T19:54:54.581Z,19.19
2022-09-28T19:57:21.559Z,19.17
2022-09-28T19:59:52.317Z,19.15
2022-09-28T20:02:20.408Z,19.12
2022-09-28T20:04:47.692Z,19.12
2022-09-28T20:07:15.316Z,19.11
2022-09-28T20:09:42.477Z,19.10
2022-09-28T20:12:09.784Z,19.08
2022-09-28T20:14:39.664Z,19.07
2022-09-28T20:17:07.633Z,19.06
2022-09-28T20:19:37.968Z,19.05
2022-09-28T20:22:07.610Z,19.03
2022-09-28T20:24:34.737Z,19.01
2022-09-28T20:27:01.846Z,19.01
2022-09-28T20:29:31.776Z,18.99
2022-09-28T20:31:59.239Z,18.97
2022-09-28T20:34:26.262Z,18.97
2022-09-28T20:36:53.296Z,18.95
2022-09-28T20:39:20.368Z,18.94
2022-09-28T20:41:49.338Z,18.93
2022-09-28T20:44:16.585Z,18.91
2022-09-28T20:46:44.398Z,18.90
2022-09-28T20:49:11.470Z,18.90
2022-09-28T20:51:38.386Z,18.88
2022-09-28T20:54:05.472Z,18.88
2022-09-28T20:56:37.938Z,18.87
2022-09-28T20:59:07.197Z,18.85
2022-09-28T21:01:34.255Z,18.83
2022-09-28T21:04:02.254Z,18.84
2022-09-28T21:06:35.876Z,18.84
2022-09-28T21:09:03.256Z,18.82
2022-09-28T21:11:30.327Z,18.81
2022-09-28T21:13:59.884Z,18.79
2022-09-28T21:16:27.997Z,18.80
2022-09-28T21:18:54.966Z,18.80
2022-09-28T21:21:22.584Z,18.77
2022-09-28T21:23:55.626Z,18.76
2022-09-28T21:26:25.130Z,18.76
2022-09-28T21:28:56.268Z,18.75
2022-09-28T21:31:28.432Z,18.73
2022-09-28T21:33:56.599Z,18.72
2022-09-28T21:36:23.571Z,18.72
2022-09-28T21:38:50.541Z,18.71
2022-09-28T21:41:17.543Z,18.70
2022-09-28T21:43:44.518Z,18.69
2022-09-28T21:46:11.507Z,18.68
2022-09-28T21:48:38.558Z,18.68
2022-09-28T21:51:07.207Z,18.67
2022-09-28T21:53:35.735Z,18.66
2022-09-28T21:56:03.042Z,18.66
2022-09-28T21:58:31.132Z,18.64
2022-09-28T22:01:03.951Z,18.62
2022-09-28T22:03:33.996Z,18.63
2022-09-28T22:06:01.207Z,18.61
2022-09-28T22:08:28.184Z,18.60
2022-09-28T22:11:04.137Z,18.58
2022-09-28T22:13:35.129Z,18.59
2022-09-28T22:16:02.540Z,18.59
2022-09-28T22:18:30.426Z,18.58
2022-09-28T22:21:03.927Z,18.58
2022-09-28T22:23:30.911Z,18.58
2022-09-28T22:26:01.965Z,18.57
2022-09-28T22:28:29.063Z,18.56
2022-09-28T22:30:56.693Z,18.56
2022-09-28T22:33:23.771Z,18.55
2022-09-28T22:35:51.588Z,18.54
2022-09-28T22:38:19.367Z,18.54
2022-09-28T22:40:56.037Z,18.54
2022-09-28T22:43:23.684Z,18.53
2022-09-28T22:45:51.131Z,18.52
2022-09-28T22:48:18.796Z,18.51
2022-09-28T22:50:49.908Z,18.51
2022-09-28T22:53:16.882Z,18.50
2022-09-28T22:55:43.853Z,18.50
2022-09-28T22:58:10.800Z,18.50
2022-09-28T23:00:38.744Z,18.49
2022-09-28T23:03:05.835Z,18.49
2022-09-28T23:05:34.209Z,18.49
2022-09-28T23:08:01.413Z,18.48
2022-09-28T23:10:28.485Z,18.49
2022-09-28T23:12:55.993Z,18.49
2022-09-28T23:15:22.959Z,18.47
2022-09-28T23:17:53.313Z,18.47
2022-09-28T23:20:21.019Z,18.46
2022-09-28T23:22:48.535Z,18.46
2022-09-28T23:25:16.167Z,18.44
2022-09-28T23:27:47.440Z,18.43
2022-09-28T23:30:15.609Z,18.43
2022-09-28T23:32:42.607Z,18.43
2022-09-28T23:35:09.843Z,18.42
2022-09-28T23:37:37.063Z,18.42
2022-09-28T23:40:05.366Z,18.42
2022-09-28T23:42:32.365Z,18.42
2022-09-28T23:44:59.383Z,18.40
2022-09-28T23:47:26.477Z,18.41
2022-09-28T23:49:53.430Z,18.40
2022-09-28T23:52:21.349Z,18.40
2022-09-28T23:54:48.281Z,18.39
2022-09-28T23:57:15.497Z,18.39
2022-09-28T23:59:42.440Z,18.37
